createdAt,value
2023-04-11T00:01:41.552Z,99.90
2023-04-11T00:04:11.028Z,99.90
2023-04-11T00:06:39.320Z,99.90
2023-04-11T00:09:07.289Z,99.90
2023-04-11T00:11:35.283Z,99.90
2023-04-11T00:14:05.423Z,99.90
2023-04-11T00:16:34.358Z,99.90
2023-04-11T00:19:03.838Z,99.90
2023-04-11T00:21:31.778Z,99.90
2023-04-11T00:23:59.979Z,99.90
2023-04-11T00:26:28.200Z,99.90
2023-04-11T00:28:56.364Z,99.90
2023-04-11T00:31:24.588Z,99.90
2023-04-11T00:33:52.581Z,99.90
2023-04-11T00:36:22.067Z,99.90
2023-04-11T00:38:50.119Z,99.90
2023-04-11T00:41:18.989Z,99.90
2023-04-11T00:43:47.137Z,99.90
2023-04-11T00:46:17.057Z,99.90
2023-04-11T00:48:46.067Z,99.90
2023-04-11T00:51:14.349Z,99.90
2023-04-11T00:53:45.600Z,99.90
2023-04-11T00:56:13.888Z,99.90
2023-04-11T00:58:42.489Z,99.90
2023-04-11T01:01:10.565Z,99.90
2023-04-11T01:03:41.291Z,99.90
2023-04-11T01:06:11.613Z,99.90
2023-04-11T01:08:43.841Z,99.90
2023-04-11T01:11:15.780Z,99.90
2023-04-11T01:13:43.859Z,99.90
2023-04-11T01:16:12.240Z,99.90
2023-04-11T01:18:40.339Z,99.90
2023-04-11T01:21:10.164Z,99.90
2023-04-11T01:23:39.560Z,99.90
2023-04-11T01:26:07.917Z,99.90
2023-04-11T01:28:35.874Z,99.90
2023-04-11T01:31:05.114Z,99.90
2023-04-11T01:33:33.178Z,99.90
2023-04-11T01:36:01.403Z,99.90
2023-04-11T01:38:29.498Z,99.90
2023-04-11T01:41:00.050Z,99.90
2023-04-11T01:43:28.166Z,99.90
2023-04-11T01:45:56.181Z,99.90
2023-04-11T01:48:24.239Z,99.90
2023-04-11T01:50:53.044Z,99.90
2023-04-11T01:53:21.046Z,99.90
2023-04-11T01:55:49.013Z,99.90
2023-04-11T01:58:18.352Z,99.90
2023-04-11T02:00:46.375Z,99.90
2023-04-11T02:03:14.581Z,99.90
2023-04-11T02:05:43.996Z,99.90
2023-04-11T02:08:12.224Z,99.90
2023-04-11T02:10:40.183Z,99.90
2023-04-11T02:13:08.161Z,99.90
2023-04-11T02:15:37.549Z,99.90
2023-04-11T02:18:06.828Z,99.90
2023-04-11T02:20:34.816Z,99.90
2023-04-11T02:23:04.335Z,99.90
2023-04-11T02:25:32.366Z,99.90
2023-04-11T02:28:00.795Z,99.90
2023-04-11T02:30:28.896Z,99.90
2023-04-11T02:32:58.248Z,99.90
2023-04-11T02:35:26.389Z,99.90
2023-04-11T02:37:54.325Z,99.90
2023-04-11T02:40:22.257Z,99.90
2023-04-11T02:42:50.225Z,99.90
2023-04-11T02:45:19.027Z,99.90
2023-04-11T02:47:47.066Z,99.90
2023-04-11T02:50:16.909Z,99.90
2023-04-11T02:52:50.365Z,99.90
2023-04-11T02:55:24.070Z,99.90
2023-04-11T02:57:52.807Z,99.90
2023-04-11T03:00:22.238Z,99.90
2023-04-11T03:02:57.326Z,99.90
2023-04-11T03:05:27.796Z,99.90
2023-04-11T03:07:57.749Z,99.90
2023-04-11T03:10:26.794Z,99.90
2023-04-11T03:12:55.319Z,99.90
2023-04-11T03:15:23.520Z,99.90
2023-04-11T03:17:51.497Z,99.90
2023-04-11T03:20:20.314Z,99.90
2023-04-11T03:22:55.440Z,99.90
2023-04-11T03:25:25.188Z,99.90
2023-04-11T03:27:53.959Z,99.90
2023-04-11T03:30:22.745Z,99.90
2023-04-11T03:32:50.689Z,99.90
2023-04-11T03:35:20.491Z,99.90
2023-04-11T03:37:50.810Z,99.90
2023-04-11T03:40:20.393Z,99.90
2023-04-11T03:42:54.517Z,99.90
2023-04-11T03:45:27.000Z,99.90
2023-04-11T03:47:56.267Z,99.90
2023-04-11T03:50:29.208Z,99.90
2023-04-11T03:53:01.534Z,99.90
2023-04-11T03:55:32.387Z,99.90
2023-04-11T03:58:02.900Z,99.90
2023-04-11T04:00:32.290Z,99.90
2023-04-11T04:03:07.000Z,99.90
2023-04-11T04:05:35.481Z,99.90
2023-04-11T04:08:03.772Z,99.90
2023-04-11T04:10:44.218Z,99.90
2023-04-11T04:13:12.449Z,99.90
2023-04-11T04:15:44.476Z,99.90
2023-04-11T04:18:14.373Z,99.90
2023-04-11T04:20:47.612Z,99.90
2023-04-11T04:23:17.947Z,99.90
2023-04-11T04:26:02.226Z,99.90
2023-04-11T04:28:32.704Z,99.90
2023-04-11T04:31:04.005Z,99.90
2023-04-11T04:33:42.873Z,99.90
2023-04-11T04:36:19.008Z,99.90
2023-04-11T04:38:48.808Z,99.90
2023-04-11T04:41:22.060Z,99.90
2023-04-11T04:43:58.097Z,99.90
2023-04-11T04:46:44.415Z,99.90
2023-04-11T04:49:12.467Z,99.90
2023-04-11T04:51:41.251Z,99.90
2023-04-11T04:54:09.754Z,99.90
2023-04-11T04:56:39.317Z,99.90
2023-04-11T04:59:14.437Z,99.90
2023-04-11T05:01:44.317Z,99.90
2023-04-11T05:04:12.761Z,99.90
2023-04-11T05:06:51.864Z,99.90
2023-04-11T05:09:20.168Z,99.90
2023-04-11T05:11:51.478Z,99.90
2023-04-11T05:14:21.408Z,99.90
2023-04-11T05:16:49.413Z,99.90
2023-04-11T05:19:17.427Z,99.90
2023-04-11T05:21:48.629Z,99.90
2023-04-11T05:24:16.682Z,99.90
2023-04-11T05:26:45.736Z,99.90
2023-04-11T05:29:18.350Z,99.90
2023-04-11T05:31:46.699Z,99.90
2023-04-11T05:34:14.699Z,99.90
2023-04-11T05:36:43.092Z,99.90
2023-04-11T05:39:11.036Z,99.90
2023-04-11T05:41:39.079Z,99.90
2023-04-11T05:44:07.023Z,99.90
2023-04-11T05:46:37.444Z,99.90
2023-04-11T05:49:05.615Z,99.90
2023-04-11T05:51:33.839Z,99.90
2023-04-11T05:54:01.849Z,99.90
2023-04-11T05:56:29.852Z,99.90
2023-04-11T05:58:57.779Z,99.90
2023-04-11T06:01:26.136Z,99.90
2023-04-11T06:03:55.933Z,99.90
2023-04-11T06:06:24.659Z,99.90
2023-04-11T06:08:52.626Z,99.90
2023-04-11T06:11:20.745Z,99.90
2023-04-11T06:13:48.745Z,99.90
2023-04-11T06:16:16.822Z,99.90
2023-04-11T06:18:44.805Z,99.90
2023-04-11T06:21:14.290Z,99.90
2023-04-11T06:23:42.263Z,99.90
2023-04-11T06:26:11.378Z,99.90
2023-04-11T06:28:39.653Z,99.90
2023-04-11T06:31:09.834Z,99.90
2023-04-11T06:33:38.568Z,99.90
2023-04-11T06:36:07.276Z,99.90
2023-04-11T06:38:38.072Z,99.90
2023-04-11T06:41:08.255Z,99.90
2023-04-11T06:43:36.369Z,99.90
2023-04-11T06:46:04.722Z,99.90
2023-04-11T06:48:32.786Z,99.90
2023-04-11T06:51:00.777Z,99.90
2023-04-11T06:53:29.195Z,99.90
2023-04-11T06:56:00.942Z,99.90
2023-04-11T06:58:28.978Z,99.90
2023-04-11T07:00:56.893Z,99.90
2023-04-11T07:03:26.515Z,99.90
2023-04-11T07:05:54.684Z,99.90
2023-04-11T07:08:22.676Z,99.90
2023-04-11T07:10:50.708Z,99.90
2023-04-11T07:13:21.190Z,99.90
2023-04-11T07:15:49.197Z,99.90
2023-04-11T07:18:17.237Z,99.90
2023-04-11T07:20:48.540Z,99.90
2023-04-11T07:23:16.536Z,99.90
2023-04-11T07:25:44.989Z,99.90
2023-04-11T07:28:13.091Z,99.90
2023-04-11T07:30:42.620Z,99.90
2023-04-11T07:33:10.941Z,99.90
2023-04-11T07:35:39.058Z,99.90
2023-04-11T07:38:09.405Z,99.90
2023-04-11T07:40:37.377Z,99.90
2023-04-11T07:43:05.433Z,99.90
2023-04-11T07:45:34.104Z,99.90
2023-04-11T07:48:03.498Z,99.90
2023-04-11T07:50:31.464Z,99.90
2023-04-11T07:52:59.454Z,99.90
2023-04-11T07:55:27.588Z,99.90
2023-04-11T07:57:55.565Z,99.90
2023-04-11T08:00:24.454Z,99.90
2023-04-11T08:02:53.120Z,99.90
2023-04-11T08:05:22.879Z,99.90
2023-04-11T08:07:51.077Z,99.90
2023-04-11T08:10:19.141Z,99.90
2023-04-11T08:12:47.086Z,99.90
2023-04-11T08:15:15.219Z,99.90
2023-04-11T08:17:43.640Z,99.90
2023-04-11T08:20:12.831Z,99.90
2023-04-11T08:22:44.628Z,99.90
2023-04-11T08:25:14.385Z,99.90
2023-04-11T08:27:42.732Z,99.90
2023-04-11T08:30:11.089Z,99.90
2023-04-11T08:32:39.457Z,99.90
2023-04-11T08:35:08.108Z,99.90
2023-04-11T08:37:36.061Z,99.90
2023-04-11T08:40:07.265Z,99.90
2023-04-11T08:42:35.719Z,99.90
2023-04-11T08:45:08.374Z,99.90
2023-04-11T08:47:37.158Z,99.90
2023-04-11T08:50:05.911Z,99.90
2023-04-11T08:52:35.040Z,99.90
2023-04-11T08:55:03.057Z,99.70
2023-04-11T08:57:32.455Z,99.90
2023-04-11T09:00:08.056Z,99.70
2023-04-11T09:02:36.102Z,98.10
2023-04-11T09:05:04.212Z,97.60
2023-04-11T09:07:49.921Z,96.40
2023-04-11T09:10:22.223Z,97.40
2023-04-11T09:12:51.609Z,96.60
2023-04-11T09:15:20.757Z,96.70
2023-04-11T09:17:49.753Z,97.00
2023-04-11T09:20:19.425Z,96.90
2023-04-11T09:22:49.792Z,96.10
2023-04-11T09:25:18.495Z,95.90
2023-04-11T09:27:46.591Z,96.00
2023-04-11T09:30:24.916Z,96.90
2023-04-11T09:32:54.473Z,95.90
2023-04-11T09:35:24.864Z,95.00
2023-04-11T09:37:55.351Z,94.60
2023-04-11T09:40:25.153Z,92.70
2023-04-11T09:42:58.810Z,92.90
2023-04-11T09:45:30.873Z,92.40
2023-04-11T09:48:00.916Z,93.30
2023-04-11T09:50:29.491Z,93.60
2023-04-11T09:52:59.599Z,93.80
2023-04-11T09:55:27.568Z,93.80
2023-04-11T09:57:56.152Z,93.20
2023-04-11T10:00:29.228Z,93.30
2023-04-11T10:02:58.894Z,90.70
2023-04-11T10:05:28.611Z,89.30
2023-04-11T10:08:03.343Z,89.40
2023-04-11T10:10:31.490Z,90.20
2023-04-11T10:12:59.505Z,88.20
2023-04-11T10:15:27.816Z,87.50
2023-04-11T10:18:10.459Z,85.40
2023-04-11T10:20:46.127Z,86.70
2023-04-11T10:23:14.900Z,84.60
2023-04-11T10:25:55.122Z,82.70
2023-04-11T10:28:38.182Z,81.30
2023-04-11T10:31:08.951Z,82.30
2023-04-11T10:33:39.641Z,79.90
2023-04-11T10:36:10.834Z,83.20
2023-04-11T10:38:49.486Z,79.00
2023-04-11T10:41:19.737Z,80.60
2023-04-11T10:43:48.254Z,81.10
2023-04-11T10:46:20.512Z,83.40
2023-04-11T10:49:00.444Z,83.70
2023-04-11T10:51:29.515Z,83.10
2023-04-11T10:53:59.620Z,81.10
2023-04-11T10:56:55.426Z,81.50
2023-04-11T10:59:58.016Z,79.30
2023-04-11T11:02:37.520Z,80.30
2023-04-11T11:05:24.163Z,76.30
2023-04-11T11:07:53.820Z,75.50
2023-04-11T11:10:40.428Z,74.60
2023-04-11T11:13:08.789Z,72.40
2023-04-11T11:15:38.447Z,71.10
2023-04-11T11:18:08.343Z,71.70
2023-04-11T11:20:38.529Z,71.10
2023-04-11T11:23:07.955Z,70.20
2023-04-11T11:25:36.384Z,73.00
2023-04-11T11:28:06.720Z,65.80
2023-04-11T11:30:35.644Z,62.90
2023-04-11T11:33:17.733Z,63.80
2023-04-11T11:35:53.875Z,65.00
2023-04-11T11:38:23.157Z,68.20
2023-04-11T11:40:51.653Z,68.00
2023-04-11T11:43:19.690Z,69.40
2023-04-11T11:45:48.091Z,68.80
2023-04-11T11:48:23.301Z,71.00
2023-04-11T11:50:58.508Z,68.20
2023-04-11T11:53:26.994Z,63.10
2023-04-11T11:55:56.709Z,62.20
2023-04-11T11:58:25.536Z,63.40
2023-04-11T12:00:53.838Z,61.80
2023-04-11T12:03:23.644Z,64.00
2023-04-11T12:05:53.736Z,60.30
2023-04-11T12:08:23.137Z,59.90
2023-04-11T12:10:51.849Z,62.10
2023-04-11T12:13:22.260Z,60.10
2023-04-11T12:15:52.044Z,60.90
2023-04-11T12:18:22.338Z,63.20
2023-04-11T12:20:50.536Z,64.50
2023-04-11T12:23:18.816Z,63.90
2023-04-11T12:25:48.881Z,62.40
2023-04-11T12:28:17.198Z,61.70
2023-04-11T12:30:45.167Z,61.50
2023-04-11T12:33:13.138Z,65.70
2023-04-11T12:35:41.356Z,64.70
2023-04-11T12:38:10.858Z,64.70
2023-04-11T12:40:41.246Z,63.90
2023-04-11T12:43:10.526Z,64.90
2023-04-11T12:45:39.124Z,66.80
2023-04-11T12:48:07.760Z,67.80
2023-04-11T12:50:35.790Z,66.70
2023-04-11T12:53:03.767Z,65.80
2023-04-11T12:55:31.819Z,64.00
2023-04-11T12:57:59.804Z,63.10
2023-04-11T13:00:29.294Z,64.50
2023-04-11T13:02:57.972Z,65.50
2023-04-11T13:05:26.229Z,64.00
2023-04-11T13:07:54.161Z,64.10
2023-04-11T13:10:22.377Z,63.40
2023-04-11T13:12:53.252Z,66.00
2023-04-11T13:15:21.355Z,63.90
2023-04-11T13:17:51.332Z,63.80
2023-04-11T13:20:19.354Z,63.00
2023-04-11T13:22:47.304Z,62.50
2023-04-11T13:25:15.328Z,62.70
2023-04-11T13:27:43.682Z,61.10
2023-04-11T13:30:12.457Z,63.10
2023-04-11T13:32:40.663Z,61.30
2023-04-11T13:35:10.517Z,58.90
2023-04-11T13:37:38.530Z,58.60
2023-04-11T13:40:08.334Z,60.20
2023-04-11T13:42:36.501Z,61.50
2023-04-11T13:45:05.484Z,63.00
2023-04-11T13:47:35.384Z,61.40
2023-04-11T13:50:05.502Z,60.30
2023-04-11T13:52:34.834Z,61.60
2023-04-11T13:55:03.298Z,61.80
2023-04-11T13:57:31.277Z,61.30
2023-04-11T13:59:59.232Z,60.70
2023-04-11T14:02:27.242Z,62.30
2023-04-11T14:04:55.257Z,61.70
2023-04-11T14:07:23.180Z,61.20
2023-04-11T14:09:52.507Z,62.10
2023-04-11T14:12:20.507Z,61.50
2023-04-11T14:14:48.468Z,62.90
2023-04-11T14:17:16.758Z,63.20
2023-04-11T14:19:44.792Z,62.90
2023-04-11T14:22:12.881Z,63.60
2023-04-11T14:24:40.960Z,62.80
2023-04-11T14:27:10.354Z,65.30
2023-04-11T14:29:38.426Z,64.90
2023-04-11T14:32:07.494Z,68.20
2023-04-11T14:34:35.663Z,69.20
2023-04-11T14:37:03.781Z,69.80
2023-04-11T14:39:32.748Z,69.70
2023-04-11T14:42:02.005Z,70.10
2023-04-11T14:44:31.429Z,71.40
2023-04-11T14:46:59.408Z,72.90
2023-04-11T14:49:27.414Z,74.70
2023-04-11T14:51:55.439Z,75.40
2023-04-11T14:54:24.535Z,76.50
2023-04-11T14:56:53.078Z,75.60
2023-04-11T14:59:21.160Z,75.70
2023-04-11T15:01:50.613Z,77.30
2023-04-11T15:04:21.723Z,77.00
2023-04-11T15:06:49.888Z,79.90
2023-04-11T15:09:20.048Z,79.20
2023-04-11T15:11:48.650Z,79.00
2023-04-11T15:14:16.790Z,76.50
2023-04-11T15:16:44.856Z,78.10
2023-04-11T15:19:14.183Z,77.00
2023-04-11T15:21:42.157Z,78.60
2023-04-11T15:24:10.272Z,78.20
2023-04-11T15:26:38.406Z,79.00
2023-04-11T15:29:06.957Z,73.80
2023-04-11T15:31:36.396Z,73.60
2023-04-11T15:34:04.363Z,72.50
2023-04-11T15:36:34.111Z,72.10
2023-04-11T15:39:02.119Z,73.40
2023-04-11T15:41:31.817Z,72.20
2023-04-11T15:44:00.936Z,72.20
2023-04-11T15:46:30.021Z,71.50
2023-04-11T15:48:58.064Z,72.70
2023-04-11T15:51:27.195Z,73.50
2023-04-11T15:53:56.731Z,74.90
2023-04-11T15:56:24.852Z,73.00
2023-04-11T15:58:52.810Z,70.10
2023-04-11T16:01:22.850Z,72.60
2023-04-11T16:03:53.498Z,72.60
2023-04-11T16:06:22.484Z,72.20
2023-04-11T16:08:50.832Z,73.40
2023-04-11T16:11:20.386Z,73.40
2023-04-11T16:13:48.448Z,73.80
2023-04-11T16:16:16.580Z,72.30
2023-04-11T16:18:44.579Z,74.40
2023-04-11T16:21:16.326Z,73.00
2023-04-11T16:23:44.585Z,76.10
2023-04-11T16:26:12.827Z,76.50
2023-04-11T16:28:42.136Z,75.70
2023-04-11T16:31:10.144Z,74.90
2023-04-11T16:33:38.144Z,75.60
2023-04-11T16:36:06.555Z,77.20
2023-04-11T16:38:34.621Z,75.80
2023-04-11T16:41:03.341Z,77.10
2023-04-11T16:43:31.321Z,78.60
2023-04-11T16:46:00.785Z,78.90
2023-04-11T16:48:30.322Z,78.90
2023-04-11T16:50:58.744Z,78.70
2023-04-11T16:53:26.686Z,79.00
2023-04-11T16:55:55.660Z,80.00
2023-04-11T16:58:23.769Z,81.60
2023-04-11T17:00:55.287Z,81.90
2023-04-11T17:03:24.961Z,82.40
2023-04-11T17:05:53.030Z,84.20
2023-04-11T17:08:21.286Z,84.40
2023-04-11T17:10:49.433Z,86.10
2023-04-11T17:13:18.579Z,86.40
2023-04-11T17:15:46.920Z,88.80
2023-04-11T17:18:15.675Z,88.10
2023-04-11T17:20:46.290Z,89.40
2023-04-11T17:23:14.326Z,90.30
2023-04-11T17:25:42.466Z,91.10
2023-04-11T17:28:10.610Z,91.60
2023-04-11T17:30:38.578Z,92.20
2023-04-11T17:33:06.631Z,92.20
2023-04-11T17:35:34.752Z,92.70
2023-04-11T17:38:04.129Z,93.00
2023-04-11T17:40:32.126Z,93.40
2023-04-11T17:43:00.542Z,93.60
2023-04-11T17:45:28.682Z,94.40
2023-04-11T17:47:56.727Z,94.20
2023-04-11T17:50:25.107Z,94.50
2023-04-11T17:52:53.120Z,94.80
2023-04-11T17:55:22.592Z,94.90
2023-04-11T17:57:50.558Z,95.20
2023-04-11T18:00:23.038Z,95.00
2023-04-11T18:02:52.816Z,95.40
2023-04-11T18:05:24.982Z,95.80
2023-04-11T18:07:54.901Z,96.00
2023-04-11T18:10:25.762Z,96.10
2023-04-11T18:12:55.443Z,95.80
2023-04-11T18:15:24.361Z,95.70
2023-04-11T18:17:53.198Z,96.10
2023-04-11T18:20:21.392Z,96.20
2023-04-11T18:22:56.012Z,96.00
2023-04-11T18:25:25.496Z,96.30
2023-04-11T18:27:53.489Z,96.20
2023-04-11T18:30:21.435Z,96.50
2023-04-11T18:32:51.652Z,96.30
2023-04-11T18:35:19.790Z,96.10
2023-04-11T18:37:47.880Z,96.50
2023-04-11T18:40:16.504Z,96.60
2023-04-11T18:42:48.382Z,97.00
2023-04-11T18:45:18.056Z,97.00
2023-04-11T18:47:46.597Z,97.20
2023-04-11T18:50:15.074Z,97.20
2023-04-11T18:52:44.818Z,97.20
2023-04-11T18:55:13.753Z,97.40
2023-04-11T18:57:43.783Z,97.80
2023-04-11T19:00:18.417Z,99.30
2023-04-11T19:02:47.590Z,99.60
2023-04-11T19:05:16.430Z,99.90
2023-04-11T19:07:45.347Z,99.90
2023-04-11T19:10:13.624Z,99.90
2023-04-11T19:12:41.800Z,99.90
2023-04-11T19:15:10.709Z,99.90
2023-04-11T19:17:40.468Z,99.90
2023-04-11T19:20:12.419Z,99.90
2023-04-11T19:22:41.206Z,99.90
2023-04-11T19:25:11.513Z,99.90
2023-04-11T19:27:41.393Z,99.90
2023-04-11T19:30:11.335Z,99.90
2023-04-11T19:32:43.901Z,99.90
2023-04-11T19:35:12.916Z,99.90
2023-04-11T19:37:41.657Z,99.90
2023-04-11T19:40:12.351Z,99.90
2023-04-11T19:42:40.521Z,99.90
2023-04-11T19:45:10.543Z,99.90
2023-04-11T19:47:40.254Z,99.90
2023-04-11T19:50:11.758Z,99.90
2023-04-11T19:52:40.126Z,99.90
2023-04-11T19:55:09.331Z,99.90
2023-04-11T19:57:38.241Z,99.90
2023-04-11T20:00:11.966Z,99.90
2023-04-11T20:02:45.102Z,99.90
2023-04-11T20:05:14.642Z,99.90
2023-04-11T20:07:43.925Z,99.90
2023-04-11T20:10:13.046Z,99.90
2023-04-11T20:12:41.152Z,99.90
2023-04-11T20:15:10.627Z,99.90
2023-04-11T20:17:38.746Z,99.90
2023-04-11T20:20:11.188Z,99.90
2023-04-11T20:22:40.226Z,99.90
2023-04-11T20:25:11.344Z,99.90
2023-04-11T20:27:39.552Z,99.90
2023-04-11T20:30:10.373Z,99.90
2023-04-11T20:32:38.485Z,99.90
2023-04-11T20:35:09.691Z,99.90
2023-04-11T20:37:37.808Z,99.90
2023-04-11T20:40:08.006Z,99.90
2023-04-11T20:42:39.756Z,99.90
2023-04-11T20:45:10.285Z,99.90
2023-04-11T20:47:38.531Z,99.90
2023-04-11T20:50:10.286Z,99.90
2023-04-11T20:52:41.041Z,99.90
2023-04-11T20:55:10.502Z,99.90
2023-04-11T20:57:38.616Z,99.90
2023-04-11T21:00:13.711Z,99.90
2023-04-11T21:02:44.257Z,99.90
2023-04-11T21:05:14.413Z,99.90
2023-04-11T21:07:43.035Z,99.90
2023-04-11T21:10:11.999Z,99.90
2023-04-11T21:12:40.755Z,99.90
2023-04-11T21:15:10.049Z,99.90
2023-04-11T21:17:39.406Z,99.90
2023-04-11T21:20:11.049Z,99.90
2023-04-11T21:22:40.690Z,99.90
2023-04-11T21:25:09.800Z,99.90
2023-04-11T21:27:37.823Z,99.90
2023-04-11T21:30:07.233Z,99.90
2023-04-11T21:32:35.237Z,99.90
2023-04-11T21:35:03.589Z,99.90
2023-04-11T21:37:31.588Z,99.90
2023-04-11T21:40:00.926Z,99.90
2023-04-11T21:42:28.985Z,99.90
2023-04-11T21:44:56.940Z,99.90
2023-04-11T21:47:25.020Z,99.90
2023-04-11T21:49:53.009Z,99.90
2023-04-11T21:52:20.970Z,99.90
2023-04-11T21:54:49.059Z,99.90
2023-04-11T21:57:18.359Z,99.90
2023-04-11T21:59:46.751Z,99.90
2023-04-11T22:02:14.926Z,99.90
2023-04-11T22:05:01.239Z,99.90
2023-04-11T22:07:38.140Z,99.90
2023-04-11T22:10:09.803Z,99.90
2023-04-11T22:12:39.805Z,99.90
2023-04-11T22:15:10.908Z,99.90
2023-04-11T22:17:41.665Z,99.90
2023-04-11T22:20:11.185Z,99.90
2023-04-11T22:22:39.248Z,99.90
2023-04-11T22:25:09.867Z,99.90
2023-04-11T22:27:39.266Z,99.90
2023-04-11T22:30:08.725Z,99.90
2023-04-11T22:32:37.048Z,99.90
2023-04-11T22:35:06.677Z,99.90
2023-04-11T22:37:34.610Z,99.90
2023-04-11T22:40:06.016Z,99.90
2023-04-11T22:42:33.997Z,99.90
2023-04-11T22:45:03.426Z,99.90
2023-04-11T22:47:34.101Z,99.90
2023-04-11T22:50:03.406Z,99.90
2023-04-11T22:52:31.425Z,99.90
2023-04-11T22:54:59.404Z,99.90
2023-04-11T22:57:27.360Z,99.90
2023-04-11T22:59:55.310Z,99.90
2023-04-11T23:02:25.234Z,99.90
2023-04-11T23:04:53.687Z,99.90
2023-04-11T23:07:22.282Z,99.90
2023-04-11T23:09:52.506Z,99.90
2023-04-11T23:12:23.494Z,99.90
2023-04-11T23:14:53.146Z,99.90
2023-04-11T23:17:21.304Z,99.90
2023-04-11T23:19:50.902Z,99.90
2023-04-11T23:22:19.289Z,99.90
2023-04-11T23:24:47.275Z,99.90
2023-04-11T23:27:15.182Z,99.90
2023-04-11T23:29:43.346Z,99.90
2023-04-11T23:32:11.287Z,99.90
2023-04-11T23:34:39.694Z,99.90
2023-04-11T23:37:09.072Z,99.90
2023-04-11T23:39:37.775Z,99.90
2023-04-11T23:42:06.139Z,99.90
2023-04-11T23:44:34.093Z,99.90
2023-04-11T23:47:02.094Z,99.90
2023-04-11T23:49:30.067Z,99.90
2023-04-11T23:51:58.036Z,99.90
2023-04-11T23:54:30.326Z,99.90
2023-04-11T23:56:58.632Z,99.90
2023-04-11T23:59:27.026Z,99.90
